Time;durP1;ratioP1;P1;durP2;ratioP2;P2;SDS_P1;SDS_P2;PMS_P1;PMS_P2;Temp;Humidity;BMP_temperature;BMP_pressure;BME280_temperature;BME280_humidity;BME280_pressure;Samples;Min_cycle;Max_cycle;Signal;HPM_P1;HPM_P2
2020/12/16 00:01:05;;;;;;;92.72;49.42;;;;;;;3.46;81.51;101242.38;1818058;77;21148;-78
2020/12/16 00:03:32;;;;;;;89.32;49.73;;;;;;;3.44;81.44;101239.20;1818103;77;22081;-78
2020/12/16 00:06:02;;;;;;;92.92;50.45;;;;;;;3.40;81.39;101235.50;1818011;78;21111;-78
2020/12/16 00:08:29;;;;;;;87.20;46.75;;;;;;;3.40;81.50;101238.52;1818222;77;21151;-79
2020/12/16 00:10:56;;;;;;;92.15;49.55;;;;;;;3.38;81.50;101239.72;1818275;77;21127;-78
2020/12/16 00:13:23;;;;;;;118.77;59.10;;;;;;;3.39;81.51;101241.91;1818067;77;21269;-78
2020/12/16 00:15:51;;;;;;;111.65;56.15;;;;;;;3.36;81.45;101239.10;1817960;78;22856;-78
2020/12/16 00:18:22;;;;;;;97.85;53.20;;;;;;;3.33;81.44;101230.72;1817948;78;21186;-78
2020/12/16 00:20:56;;;;;;;88.92;50.33;;;;;;;3.29;81.48;101232.23;1818102;77;21182;-78
2020/12/16 00:23:26;;;;;;;90.22;49.23;;;;;;;3.27;81.54;101233.84;1817873;78;21115;-78
2020/12/16 00:25:54;;;;;;;96.45;49.85;;;;;;;3.27;81.65;101228.64;1817797;78;21218;-78
2020/12/16 00:28:22;;;;;;;89.60;48.48;;;;;;;3.27;81.61;101226.03;1817944;77;21936;-78
2020/12/16 00:30:49;;;;;;;88.55;49.70;;;;;;;3.27;81.70;101227.34;1817825;78;21616;-78
2020/12/16 00:33:20;;;;;;;87.10;48.05;;;;;;;3.26;81.68;101231.14;1817755;77;21473;-78
2020/12/16 00:35:52;;;;;;;84.85;48.30;;;;;;;3.25;81.73;101226.76;1817842;78;21167;-78
2020/12/16 00:38:23;;;;;;;83.17;47.55;;;;;;;3.27;81.83;101227.75;1817887;77;21241;-78
2020/12/16 00:40:55;;;;;;;90.57;50.05;;;;;;;3.28;81.82;101223.02;1817889;78;22144;-78
2020/12/16 00:43:27;;;;;;;92.80;50.83;;;;;;;3.30;81.90;101228.84;1823890;77;21477;-78
2020/12/16 00:46:01;;;;;;;91.57;47.83;;;;;;;3.31;81.84;101230.62;1826024;77;21155;-78
2020/12/16 00:48:33;;;;;;;90.90;51.05;;;;;;;3.33;81.93;101229.42;1825965;78;21139;-78
2020/12/16 00:51:05;;;;;;;94.35;51.68;;;;;;;3.35;81.94;101229.52;1823637;77;21484;-78
2020/12/16 00:53:42;;;;;;;;;;;;;;;3.38;82.00;101233.59;1828633;77;21951;-78
2020/12/16 00:56:10;;;;;;;88.10;47.75;;;;;;;3.39;81.96;101231.09;1826019;77;20309;-77
2020/12/16 00:58:39;;;;;;;94.87;51.20;;;;;;;3.42;82.00;101229.09;1825864;78;21535;-78
2020/12/16 01:01:11;;;;;;;94.62;50.83;;;;;;;3.45;82.05;101231.87;1825926;78;21018;-77
2020/12/16 01:03:39;;;;;;;100.02;52.67;;;;;;;3.46;81.95;101228.48;1825949;77;21140;-77
2020/12/16 01:06:06;;;;;;;94.50;52.88;;;;;;;3.43;81.92;101229.16;1825798;78;21925;-77
2020/12/16 01:08:38;;;;;;;87.57;51.48;;;;;;;3.49;82.10;101231.24;1825749;77;21653;-77
2020/12/16 01:11:08;;;;;;;91.10;50.40;;;;;;;3.51;82.04;101233.56;1811813;78;21173;-77
2020/12/16 01:13:35;;;;;;;94.25;51.85;;;;;;;3.54;82.05;101227.64;1811951;78;21558;-77
2020/12/16 01:16:08;;;;;;;90.17;50.28;;;;;;;3.58;82.08;101232.22;1825974;77;21993;-77
2020/12/16 01:18:42;;;;;;;88.45;48.92;;;;;;;3.62;82.08;101227.69;1825986;77;21812;-77
2020/12/16 01:21:13;;;;;;;91.25;50.80;;;;;;;3.66;82.04;101227.06;1825801;77;21221;-77
2020/12/16 01:23:40;;;;;;;89.07;48.48;;;;;;;3.69;82.04;101234.66;1825800;77;21262;-77
2020/12/16 01:26:07;;;;;;;90.25;50.03;;;;;;;3.73;81.99;101240.06;1825859;77;21156;-77
2020/12/16 01:28:37;;;;;;;85.50;47.95;;;;;;;3.76;82.04;101232.45;1825902;78;21108;-77
2020/12/16 01:31:07;;;;;;;92.90;51.50;;;;;;;3.80;82.00;101234.42;1825876;78;22744;-77
2020/12/16 01:33:41;;;;;;;85.32;48.78;;;;;;;3.83;82.00;101233.28;1825649;78;21183;-77
2020/12/16 01:36:17;;;;;;;92.33;52.13;;;;;;;3.86;81.98;101228.27;1825870;77;21606;-77
2020/12/16 01:38:49;;;;;;;83.60;47.43;;;;;;;3.88;81.97;101231.45;1825671;77;21136;-77
2020/12/16 01:41:17;;;;;;;84.15;48.75;;;;;;;3.91;81.98;101235.07;1825702;78;21626;-77
2020/12/16 01:43:53;;;;;;;85.75;48.40;;;;;;;3.93;81.97;101238.25;1819548;77;21882;-78
2020/12/16 01:46:30;;;;;;;83.95;47.13;;;;;;;3.97;81.96;101235.02;1817380;78;21187;-78
2020/12/16 01:49:07;;;;;;;89.00;48.65;;;;;;;3.97;81.95;101236.31;1817502;77;21186;-78
2020/12/16 01:51:38;;;;;;;81.40;47.35;;;;;;;4.01;82.00;101234.38;1817648;78;21115;-78
2020/12/16 01:54:07;;;;;;;86.97;48.23;;;;;;;4.03;81.92;101237.08;1792757;78;21569;-78
2020/12/16 01:56:38;;;;;;;94.45;49.33;;;;;;;4.06;81.94;101234.67;1817859;77;22834;-78
2020/12/16 01:59:06;;;;;;;83.22;46.58;;;;;;;4.08;81.96;101237.84;1817823;78;21115;-77
2020/12/16 02:01:33;;;;;;;92.55;49.98;;;;;;;4.14;81.96;101236.42;1792690;78;21111;-78
2020/12/16 02:04:00;;;;;;;89.35;47.95;;;;;;;4.15;81.92;101231.30;1792598;78;21573;-78
2020/12/16 02:06:30;;;;;;;86.45;48.28;;;;;;;4.17;81.84;101236.61;1817766;78;21183;-78
2020/12/16 02:09:03;;;;;;;89.00;49.60;;;;;;;4.17;81.85;101230.09;1793066;78;21938;-79
2020/12/16 02:11:31;;;;;;;83.78;46.88;;;;;;;4.21;81.90;101234.67;1817350;78;21211;-78
2020/12/16 02:13:58;;;;;;;85.03;48.60;;;;;;;4.23;81.90;101233.94;1817695;77;21612;-78
2020/12/16 02:16:28;;;;;;;79.42;45.95;;;;;;;4.23;81.85;101233.05;1817637;77;21206;-78
2020/12/16 02:18:55;;;;;;;86.02;47.73;;;;;;;4.23;81.82;101239.56;1817760;78;21099;-78
2020/12/16 02:21:23;;;;;;;84.15;47.98;;;;;;;4.22;81.90;101240.36;1817714;78;21872;-79
2020/12/16 02:23:51;;;;;;;89.20;48.40;;;;;;;4.23;81.94;101239.56;1817785;78;21199;-78
2020/12/16 02:26:18;;;;;;;84.52;48.65;;;;;;;4.20;81.90;101236.77;1817857;77;21175;-78
2020/12/16 02:28:45;;;;;;;81.90;47.38;;;;;;;4.20;82.01;101235.47;1817824;77;21246;-78
2020/12/16 02:31:12;;;;;;;88.22;48.70;;;;;;;4.22;82.09;101233.47;1792602;78;21538;-78
2020/12/16 02:33:39;;;;;;;85.55;48.83;;;;;;;4.24;82.17;101227.94;1817880;77;21667;-78
2020/12/16 02:36:06;;;;;;;88.47;47.48;;;;;;;4.26;82.18;101225.01;1817949;78;21115;-78
2020/12/16 02:38:37;;;;;;;85.87;47.73;;;;;;;4.28;82.15;101231.62;1817841;78;21815;-79
2020/12/16 02:41:04;;;;;;;84.47;47.20;;;;;;;4.31;82.20;101233.08;1792379;78;21286;-78
2020/12/16 02:43:31;;;;;;;87.35;48.20;;;;;;;4.32;82.15;101232.28;1821801;76;21136;-78
2020/12/16 02:45:59;;;;;;;85.38;48.45;;;;;;;4.34;82.22;101225.86;1825356;78;21861;-78
2020/12/16 02:48:26;;;;;;;85.00;46.68;;;;;;;4.35;82.16;101219.83;1825267;77;21167;-79
2020/12/16 02:50:53;;;;;;;86.67;48.35;;;;;;;4.35;82.13;101229.84;1825482;77;21204;-78
2020/12/16 02:53:21;;;;;;;86.80;49.30;;;;;;;4.34;82.17;101221.95;1825304;77;21684;-79
2020/12/16 02:55:47;;;;;;;82.88;47.75;;;;;;;4.35;82.22;101224.63;1825359;77;21104;-79
2020/12/16 02:58:15;;;;;;;82.10;47.80;;;;;;;4.38;82.32;101223.50;1825363;77;21349;-79
2020/12/16 03:00:42;;;;;;;85.85;46.92;;;;;;;4.39;82.33;101222.71;1825434;77;21515;-79
2020/12/16 03:03:09;;;;;;;78.20;46.85;;;;;;;4.42;82.41;101226.77;1825414;77;21547;-79
2020/12/16 03:05:36;;;;;;;90.10;47.67;;;;;;;4.42;82.34;101227.19;1825587;77;21187;-78
2020/12/16 03:08:07;;;;;;;75.67;46.40;;;;;;;4.42;82.46;101217.66;1825588;78;21626;-78
2020/12/16 03:10:32;;;;;;;78.52;44.80;;;;;;;4.40;82.41;101215.78;1825404;77;21982;-78
2020/12/16 03:12:59;;;;;;;83.25;47.15;;;;;;;4.38;82.46;101212.19;1825573;77;21191;-78
2020/12/16 03:15:26;;;;;;;85.95;47.33;;;;;;;4.38;82.56;101210.89;1825719;78;21222;-78
2020/12/16 03:17:53;;;;;;;86.90;48.02;;;;;;;4.38;82.58;101221.31;1825625;77;21116;-78
2020/12/16 03:20:21;;;;;;;84.52;46.08;;;;;;;4.40;82.69;101229.70;1825625;78;21575;-78
2020/12/16 03:22:48;;;;;;;77.62;45.67;;;;;;;4.42;82.75;101221.98;1825422;77;21806;-79
2020/12/16 03:25:16;;;;;;;85.92;49.88;;;;;;;4.41;82.79;101225.00;1825518;77;21092;-79
2020/12/16 03:27:43;;;;;;;79.70;46.95;;;;;;;4.42;82.87;101241.11;1825681;78;21124;-79
2020/12/16 03:30:10;;;;;;;85.62;48.10;;;;;;;4.42;82.87;101242.41;1825626;77;21135;-79
2020/12/16 03:32:37;;;;;;;76.62;45.35;;;;;;;4.41;82.99;101239.33;1825606;77;21227;-78
2020/12/16 03:35:04;;;;;;;80.75;45.55;;;;;;;4.42;83.01;101240.22;1825562;77;22388;-79
2020/12/16 03:37:31;;;;;;;82.50;48.13;;;;;;;4.43;83.07;101247.22;1825373;77;21200;-79
2020/12/16 03:39:58;;;;;;;81.12;46.28;;;;;;;4.40;83.11;101240.13;1825424;77;21127;-79
2020/12/16 03:42:25;;;;;;;81.32;46.50;;;;;;;4.40;83.21;101230.12;1825383;77;21116;-79
2020/12/16 03:44:52;;;;;;;75.22;45.00;;;;;;;4.42;83.25;101233.30;1818211;77;21187;-78
2020/12/16 03:47:20;;;;;;;78.55;47.15;;;;;;;4.42;83.28;101233.70;1817898;78;21922;-79
2020/12/16 03:49:47;;;;;;;79.12;47.20;;;;;;;4.41;83.32;101228.91;1817861;78;21194;-79
2020/12/16 03:52:14;;;;;;;76.00;45.92;;;;;;;4.43;83.36;101235.48;1817906;77;21127;-79
2020/12/16 03:54:41;;;;;;;79.97;46.77;;;;;;;4.42;83.39;101231.98;1817756;78;21586;-78
2020/12/16 03:57:08;;;;;;;78.85;45.43;;;;;;;4.43;83.48;101248.14;1817824;77;21107;-79
2020/12/16 03:59:35;;;;;;;75.57;45.67;;;;;;;4.44;83.48;101246.00;1817783;78;21870;-79
2020/12/16 04:02:02;;;;;;;76.30;46.53;;;;;;;4.47;83.58;101244.89;1817726;77;21174;-79
2020/12/16 04:04:29;;;;;;;75.72;45.65;;;;;;;4.50;83.58;101248.06;1817821;77;21216;-79
2020/12/16 04:06:56;;;;;;;80.30;45.70;;;;;;;4.50;83.62;101244.57;1817699;78;21170;-79
2020/12/16 04:09:26;;;;;;;75.20;44.65;;;;;;;4.52;83.68;101246.44;1817781;77;21264;-79
2020/12/16 04:11:56;;;;;;;75.57;45.95;;;;;;;4.52;83.64;101251.66;1817671;77;21874;-79
2020/12/16 04:14:23;;;;;;;74.97;46.50;;;;;;;4.53;83.66;101258.68;1817606;78;21194;-79
2020/12/16 04:16:50;;;;;;;78.35;45.35;;;;;;;4.55;83.74;101270.09;1817772;77;21187;-78
2020/12/16 04:19:17;;;;;;;80.80;47.60;;;;;;;4.57;83.83;101276.70;1817904;78;21209;-79
2020/12/16 04:21:44;;;;;;;76.60;44.18;;;;;;;4.58;83.78;101276.80;1817871;78;21629;-79
2020/12/16 04:24:12;;;;;;;79.07;45.30;;;;;;;4.60;83.83;101271.27;1817949;77;21942;-79
2020/12/16 04:26:39;;;;;;;72.27;45.75;;;;;;;4.62;83.89;101273.97;1817810;77;21222;-79
2020/12/16 04:29:06;;;;;;;82.78;48.33;;;;;;;4.65;83.96;101282.86;1817824;78;21674;-79
2020/12/16 04:31:34;;;;;;;97.53;52.20;;;;;;;4.64;83.91;101286.27;1817766;78;21150;-79
2020/12/16 04:34:01;;;;;;;95.07;52.80;;;;;;;4.68;84.05;101286.05;1817918;78;21629;-78
2020/12/16 04:36:28;;;;;;;92.88;50.95;;;;;;;4.69;84.05;101287.82;1817751;78;21873;-79
2020/12/16 04:38:55;;;;;;;101.87;52.88;;;;;;;4.71;84.07;101291.45;1817739;77;21179;-78
2020/12/16 04:41:22;;;;;;;98.40;52.35;;;;;;;4.74;84.15;101294.20;1817699;77;22282;-78
2020/12/16 04:43:49;;;;;;;90.75;49.35;;;;;;;4.78;84.18;101299.20;1820634;77;21163;-78
2020/12/16 04:48:55;;;;;;;81.37;47.70;;;;;;;4.91;84.27;101303.41;1889266;75;22795;-79
2020/12/16 04:51:22;;;;;;;72.15;44.20;;;;;;;4.91;84.32;101315.14;1842124;77;21167;-78
2020/12/16 04:53:49;;;;;;;85.22;48.35;;;;;;;4.96;84.33;101309.80;1784232;78;22844;-80
2020/12/16 04:56:16;;;;;;;84.03;48.58;;;;;;;4.99;84.35;101304.72;1837882;78;21048;-78
2020/12/16 04:58:43;;;;;;;79.67;45.90;;;;;;;5.04;84.38;101299.37;1828832;78;21214;-78
2020/12/16 05:01:10;;;;;;;78.75;45.45;;;;;;;5.07;84.38;101298.25;1831097;77;21557;-79
2020/12/16 05:03:41;;;;;;;75.90;45.17;;;;;;;5.09;84.38;101304.45;1862981;77;21119;-78
2020/12/16 05:06:08;;;;;;;77.42;45.20;;;;;;;5.12;84.47;101308.51;1825333;77;21893;-80
2020/12/16 05:08:35;;;;;;;77.17;46.35;;;;;;;5.19;84.55;101312.38;1862338;76;21186;-79
2020/12/16 05:11:04;;;;;;;77.17;46.73;;;;;;;5.21;84.44;101310.33;1862634;77;21535;-80
2020/12/16 05:13:31;;;;;;;76.97;46.30;;;;;;;5.25;84.47;101314.94;1862666;77;21112;-79
2020/12/16 05:16:02;;;;;;;81.32;47.13;;;;;;;5.29;84.52;101312.47;1847197;77;21133;-79
2020/12/16 05:18:29;;;;;;;75.87;45.52;;;;;;;5.31;84.45;101318.67;1829005;78;21949;-79
2020/12/16 05:20:59;;;;;;;73.67;44.50;;;;;;;5.32;84.43;101326.59;1828853;78;21243;-79
2020/12/16 05:23:31;;;;;;;80.60;47.43;;;;;;;5.35;84.43;101329.39;1828841;78;21125;-78
2020/12/16 05:26:07;;;;;;;71.87;43.87;;;;;;;5.37;84.49;101336.89;1828467;78;21128;-80
2020/12/16 05:28:41;;;;;;;74.50;42.55;;;;;;;5.41;84.56;101334.05;1828789;78;21226;-79
2020/12/16 05:31:29;;;;;;;68.45;42.67;;;;;;;5.44;84.56;101339.03;1827711;78;21878;-78
2020/12/16 05:33:56;;;;;;;75.10;43.40;;;;;;;5.45;84.48;101342.53;1747993;79;21287;-78
2020/12/16 05:36:30;;;;;;;72.05;43.30;;;;;;;5.46;84.54;101339.09;1771763;79;21292;-80
2020/12/16 05:38:57;;;;;;;66.15;40.43;;;;;;;5.49;84.54;101335.36;1737636;81;21255;-83
2020/12/16 05:41:32;;;;;;;69.15;40.33;;;;;;;5.51;84.55;101338.05;1734863;82;21127;-83
2020/12/16 05:44:22;;;;;;;69.53;41.50;;;;;;;5.53;84.64;101333.81;1737825;82;23901;-82
2020/12/16 05:46:52;;;;;;;68.83;40.92;;;;;;;5.58;84.72;101342.39;1737862;82;21215;-82
2020/12/16 05:49:26;;;;;;;65.92;39.33;;;;;;;5.61;84.74;101346.48;1737767;82;21245;-77
2020/12/16 05:52:01;;;;;;;;;;;;;;;5.65;84.73;101337.11;1740367;81;21269;-78
2020/12/16 05:54:29;;;;;;;65.80;37.10;;;;;;;5.68;84.75;101338.55;1737515;82;20665;-80
2020/12/16 05:57:17;;;;;;;62.15;37.08;;;;;;;5.72;84.82;101344.84;1737853;81;22091;-80
2020/12/16 06:00:12;;;;;;;58.73;36.13;;;;;;;5.75;84.89;101345.91;1673868;85;21186;-77
2020/12/16 06:02:41;;;;;;;59.77;37.42;;;;;;;5.79;84.87;101352.20;1674093;85;21288;-79
2020/12/16 06:05:10;;;;;;;62.33;37.20;;;;;;;5.82;84.85;101360.22;1674267;85;21265;-81
2020/12/16 06:07:45;;;;;;;61.40;36.68;;;;;;;5.85;84.86;101361.67;1670511;85;21721;-82
2020/12/16 06:10:13;;;;;;;55.48;35.70;;;;;;;5.87;84.83;101361.34;1665241;86;21682;-82
2020/12/16 06:12:44;;;;;;;61.42;36.35;;;;;;;5.88;84.84;101367.08;1665021;86;21330;-82
2020/12/16 06:15:13;;;;;;;59.03;35.17;;;;;;;5.93;85.03;101372.15;1665112;86;21263;-82
2020/12/16 06:17:45;;;;;;;59.20;35.15;;;;;;;5.99;84.97;101364.66;1665245;86;21137;-83
2020/12/16 06:20:20;;;;;;;56.25;34.35;;;;;;;6.05;84.85;101364.51;1811190;78;23343;-82
2020/12/16 06:22:48;;;;;;;54.05;35.00;;;;;;;6.00;84.82;101370.36;1796968;79;21167;-83
2020/12/16 06:25:18;;;;;;;57.00;35.65;;;;;;;6.01;84.80;101362.14;1796953;79;21673;-83
2020/12/16 06:27:49;;;;;;;56.02;34.43;;;;;;;6.02;84.81;101371.37;1792619;79;21151;-84
2020/12/16 06:30:29;;;;;;;51.90;33.35;;;;;;;6.04;84.83;101379.27;1789631;80;21065;-83
2020/12/16 06:33:38;;;;;;;49.03;31.42;;;;;;;6.03;84.79;101386.22;1789682;80;21196;-83
2020/12/16 06:36:06;;;;;;;56.23;32.85;;;;;;;6.03;84.77;101384.91;1789474;80;21700;-83
2020/12/16 06:38:47;;;;;;;52.43;31.30;;;;;;;6.06;84.84;101391.11;1789582;80;21891;-84
2020/12/16 06:41:32;;;;;;;50.20;31.00;;;;;;;6.09;84.92;101386.95;1887842;75;22353;-81
2020/12/16 06:44:10;;;;;;;51.20;31.68;;;;;;;6.05;84.83;101390.64;1862718;76;21210;-82
2020/12/16 06:46:40;;;;;;;48.35;30.05;;;;;;;6.05;84.86;101388.92;1859803;77;21876;-81
2020/12/16 06:52:05;;;;;;;42.35;27.77;;;;;;;6.08;84.85;101396.94;1810813;78;22870;-81
2020/12/16 06:54:54;;;;;;;86.63;48.98;;;;;;;6.06;84.90;101397.23;1796672;79;21178;-82
2020/12/16 06:57:29;;;;;;;80.22;47.10;;;;;;;6.10;84.99;101404.44;1796752;79;21885;-82
2020/12/16 06:59:58;;;;;;;56.40;33.60;;;;;;;6.13;84.95;101407.62;1796572;79;21196;-82
2020/12/16 07:02:28;;;;;;;44.25;28.85;;;;;;;6.16;84.96;101415.64;1796657;79;21147;-82
2020/12/16 07:04:56;;;;;;;45.33;28.98;;;;;;;6.18;85.00;101421.42;1796607;79;21203;-82
2020/12/16 07:07:47;;;;;;;38.35;26.17;;;;;;;6.22;85.04;101430.33;1796599;79;21176;-82
2020/12/16 07:13:29;;;;;;;38.95;23.57;;;;;;;6.33;85.04;101432.22;1810593;78;22458;-81
2020/12/16 07:16:10;;;;;;;36.48;23.32;;;;;;;6.33;85.13;101434.83;1796721;79;21254;-81
2020/12/16 07:18:47;;;;;;;32.38;22.48;;;;;;;6.37;85.17;101432.87;1788956;79;21897;-82
2020/12/16 07:21:22;;;;;;;35.78;23.87;;;;;;;6.42;85.18;101430.09;1778297;78;21191;-81
2020/12/16 07:24:09;;;;;;;34.63;24.50;;;;;;;6.45;85.18;101432.84;1767914;78;21215;-82
2020/12/16 07:26:46;;;;;;;33.65;22.62;;;;;;;6.49;85.22;101438.72;1768030;80;21636;-81
2020/12/16 07:29:30;;;;;;;31.62;20.97;;;;;;;6.53;85.30;101441.09;1789563;79;21191;-80
2020/12/16 07:32:08;;;;;;;;;;;;;;;6.57;85.34;101439.16;1786993;78;21893;-78
2020/12/16 07:34:46;;;;;;;32.15;20.12;;;;;;;6.60;85.38;101439.30;1782665;79;20265;-80
2020/12/16 07:37:15;;;;;;;31.33;20.05;;;;;;;6.65;85.39;101443.05;1737310;80;21201;-80
2020/12/16 07:39:54;;;;;;;30.88;19.12;;;;;;;6.69;85.54;101445.42;1773701;79;21263;-79
2020/12/16 07:45:17;;;;;;;28.95;19.42;;;;;;;6.82;85.60;101451.77;1881490;74;22769;-80
2020/12/16 07:47:44;;;;;;;34.53;22.73;;;;;;;6.84;85.64;101462.33;1829019;76;21123;-79
2020/12/16 07:50:16;;;;;;;31.73;20.25;;;;;;;6.87;85.65;101463.77;1836352;75;21467;-80
2020/12/16 07:52:45;;;;;;;33.65;20.50;;;;;;;6.89;85.62;101463.05;1835215;75;21202;-81
2020/12/16 07:55:29;;;;;;;29.70;18.50;;;;;;;6.93;85.65;101468.92;1802425;75;21191;-81
2020/12/16 07:58:09;;;;;;;27.42;18.70;;;;;;;6.95;85.61;101470.31;1836174;75;21190;-81
2020/12/16 08:00:44;;;;;;;27.73;19.50;;;;;;;6.98;85.70;101474.37;1821646;77;21179;-81
2020/12/16 08:03:15;;;;;;;41.53;22.17;;;;;;;7.04;85.75;101479.03;1822724;77;22919;-81
2020/12/16 08:05:58;;;;;;;26.10;18.20;;;;;;;7.07;85.69;101481.39;1816602;77;21198;-82
2020/12/16 08:08:44;;;;;;;30.48;20.02;;;;;;;7.13;85.72;101482.11;1822580;78;21159;-81
2020/12/16 08:11:25;;;;;;;31.48;19.95;;;;;;;7.17;85.75;101482.36;1850610;77;21134;-79
2020/12/16 08:14:05;;;;;;;24.52;17.87;;;;;;;7.24;85.67;101486.17;1856258;75;21589;-79
2020/12/16 08:16:34;;;;;;;29.65;19.67;;;;;;;7.30;85.67;101489.51;1850076;75;22771;-78
2020/12/16 08:19:04;;;;;;;21.95;16.40;;;;;;;7.36;85.63;101492.46;1824278;75;21128;-79
2020/12/16 08:24:10;;;;;;;23.52;15.85;;;;;;;7.50;85.53;101496.64;1801395;77;23561;-79
2020/12/16 08:26:40;;;;;;;24.43;15.53;;;;;;;7.50;85.49;101520.22;1769069;79;21129;-80
2020/12/16 08:29:26;;;;;;;21.60;15.43;;;;;;;7.55;85.46;101518.73;1717725;81;21922;-80
2020/12/16 08:31:53;;;;;;;21.33;14.35;;;;;;;7.58;85.36;101520.59;1763572;81;21307;-80
2020/12/16 08:34:22;;;;;;;23.27;15.65;;;;;;;7.63;85.36;101529.59;1768404;79;21776;-85
2020/12/16 08:36:52;;;;;;;24.12;16.00;;;;;;;7.64;85.29;101531.40;1763001;81;21219;-81
2020/12/16 08:39:24;;;;;;;24.85;16.27;;;;;;;7.68;85.25;101542.94;1787275;80;21199;-80
2020/12/16 08:44:35;;;;;;;23.20;15.88;;;;;;;7.74;85.23;101540.61;1868170;75;22733;-79
2020/12/16 08:47:05;;;;;;;23.25;16.27;;;;;;;7.74;85.18;101549.78;1853177;76;21179;-81
2020/12/16 08:49:38;;;;;;;22.55;15.78;;;;;;;7.77;85.27;101555.15;1856377;76;22001;-81
2020/12/16 08:52:07;;;;;;;24.50;16.67;;;;;;;7.82;85.23;101561.95;1861107;76;21135;-81
2020/12/16 08:54:38;;;;;;;23.75;15.88;;;;;;;7.87;85.25;101566.59;1836257;78;21210;-81
2020/12/16 08:57:05;;;;;;;27.90;17.65;;;;;;;7.92;85.13;101562.87;1837655;76;21491;-81
2020/12/16 08:59:32;;;;;;;32.90;19.92;;;;;;;7.95;85.21;101569.16;1870269;76;21178;-80
2020/12/16 09:02:09;;;;;;;32.70;19.70;;;;;;;8.01;85.15;101568.56;1870363;76;21809;-82
2020/12/16 09:04:40;;;;;;;29.07;19.27;;;;;;;8.04;85.09;101576.59;1837840;76;21226;-82
2020/12/16 09:07:14;;;;;;;24.10;17.32;;;;;;;8.11;85.13;101580.42;1870452;76;21517;-81
2020/12/16 09:09:49;;;;;;;23.87;15.72;;;;;;;8.18;85.07;101586.42;1870221;76;21612;-81
2020/12/16 09:12:18;;;;;;;25.02;16.60;;;;;;;8.19;84.89;101590.85;1838062;76;21182;-82
2020/12/16 09:15:03;;;;;;;23.50;15.55;;;;;;;8.21;84.85;101592.24;1870283;76;22117;-81
2020/12/16 09:17:35;;;;;;;22.95;15.60;;;;;;;8.24;84.88;101594.61;1870109;76;21609;-81
2020/12/16 09:20:04;;;;;;;21.90;15.30;;;;;;;8.29;84.89;101594.81;1870327;76;21099;-80
2020/12/16 09:22:32;;;;;;;21.85;14.90;;;;;;;8.33;84.75;101600.30;1836364;76;21218;-80
2020/12/16 09:25:01;;;;;;;24.47;16.87;;;;;;;8.30;84.50;101606.69;1846660;76;21200;-79
2020/12/16 09:27:30;;;;;;;23.80;15.95;;;;;;;8.28;84.57;101608.77;1870357;76;21789;-79
2020/12/16 09:29:59;;;;;;;23.25;15.88;;;;;;;8.30;84.69;101617.19;1870430;76;21190;-80
2020/12/16 09:32:28;;;;;;;23.42;15.70;;;;;;;8.33;84.66;101613.41;1870158;76;21588;-81
2020/12/16 09:34:55;;;;;;;23.65;16.10;;;;;;;8.32;84.46;101618.16;1855418;76;21150;-80
2020/12/16 09:37:33;;;;;;;25.00;15.43;;;;;;;8.26;84.30;101619.18;1836020;78;22032;-80
2020/12/16 09:40:13;;;;;;;23.60;15.15;;;;;;;8.20;84.29;101625.41;1836159;78;21773;-80
2020/12/16 09:42:57;;;;;;;21.82;14.58;;;;;;;8.12;84.16;101627.67;1835853;78;21341;-80
2020/12/16 09:45:25;;;;;;;20.88;14.35;;;;;;;7.99;84.06;101633.13;1836058;78;21210;-80
2020/12/16 09:47:52;;;;;;;20.15;13.88;;;;;;;;;;1823351;78;21207;-79
2020/12/16 09:50:27;;;;;;;22.20;15.43;;;;;;;7.79;84.31;101628.23;1832822;76;21182;-79
2020/12/16 09:53:14;;;;;;;18.77;14.05;;;;;;;7.80;84.59;101623.45;1893197;74;21500;-78
2020/12/16 09:55:41;;;;;;;22.87;15.08;;;;;;;7.76;84.70;101619.78;1899079;75;21300;-79
2020/12/16 09:58:12;;;;;;;20.68;14.33;;;;;;;7.75;84.79;101620.63;1899357;75;21874;-79
2020/12/16 10:00:40;;;;;;;20.75;14.23;;;;;;;7.76;84.88;101621.52;1898669;75;21136;-80
2020/12/16 10:03:12;;;;;;;23.05;14.60;;;;;;;7.74;84.90;101617.50;1880963;75;21131;-79
2020/12/16 10:05:42;;;;;;;20.65;13.43;;;;;;;7.76;84.99;101617.16;1863772;77;21194;-80
2020/12/16 10:08:14;;;;;;;22.67;13.75;;;;;;;7.79;85.00;101617.75;1877971;75;21134;-79
2020/12/16 10:10:40;;;;;;;18.75;12.88;;;;;;;7.81;85.02;101621.34;1863851;76;21870;-78
2020/12/16 10:13:07;;;;;;;19.62;12.90;;;;;;;7.83;85.03;101624.02;1863753;77;21155;-79
2020/12/16 10:15:34;;;;;;;19.85;13.65;;;;;;;7.83;85.06;101624.94;1825880;78;21164;-82
2020/12/16 10:18:05;;;;;;;20.52;13.40;;;;;;;7.87;85.11;101629.50;1789625;79;21229;-80
2020/12/16 10:20:32;;;;;;;15.50;12.05;;;;;;;7.90;85.06;101620.49;1796787;79;21476;-79
2020/12/16 10:23:01;;;;;;;16.80;11.70;;;;;;;7.93;85.05;101624.55;1796931;79;21955;-80
2020/12/16 10:25:31;;;;;;;15.60;11.90;;;;;;;7.94;84.93;101628.09;1814533;78;21164;-84
2020/12/16 10:28:12;;;;;;;17.10;11.73;;;;;;;7.95;84.98;101639.95;1826557;78;21117;-79
2020/12/16 10:30:50;;;;;;;17.12;10.90;;;;;;;7.97;84.95;101633.05;1826318;78;21137;-79
2020/12/16 10:33:22;;;;;;;20.68;12.40;;;;;;;8.00;84.96;101631.02;1826278;78;21140;-80
2020/12/16 10:35:55;;;;;;;15.58;10.80;;;;;;;8.01;84.88;101630.17;1841809;77;23934;-82
2020/12/16 10:41:17;;;;;;;15.90;10.38;;;;;;;8.05;84.85;101632.54;1767154;78;21241;-81
2020/12/16 10:43:47;;;;;;;15.78;11.08;;;;;;;8.07;84.86;101642.30;1789024;79;21233;-80
2020/12/16 10:46:19;;;;;;;14.55;10.43;;;;;;;8.10;84.86;101649.41;1826986;76;21122;-81
2020/12/16 10:48:49;;;;;;;15.88;11.00;;;;;;;8.13;84.87;101639.97;1826367;77;22667;-80
2020/12/16 10:51:20;;;;;;;16.57;10.70;;;;;;;8.09;84.83;101631.86;1825937;77;21118;-82
2020/12/16 10:53:47;;;;;;;18.42;10.88;;;;;;;8.17;84.78;101639.29;1824133;78;21145;-81
2020/12/16 10:56:17;;;;;;;14.53;10.82;;;;;;;8.20;84.78;101641.58;1828922;77;21116;-81
2020/12/16 10:58:46;;;;;;;16.40;11.12;;;;;;;8.23;84.80;101650.91;1831285;77;21656;-81
2020/12/16 11:01:13;;;;;;;17.87;11.30;;;;;;;8.25;84.75;101655.82;1824656;78;21966;-81
2020/12/16 11:06:20;;;;;;;20.88;11.15;;;;;;;8.33;84.79;101654.07;1810354;78;23286;-79
2020/12/16 11:08:48;;;;;;;14.30;10.00;;;;;;;8.32;84.79;101652.25;1798546;78;21203;-79
2020/12/16 11:11:17;;;;;;;15.38;10.58;;;;;;;8.36;84.77;101647.64;1802212;78;22863;-82
2020/12/16 11:13:46;;;;;;;17.45;10.88;;;;;;;8.42;84.82;101653.63;1804903;78;21116;-81
2020/12/16 11:16:13;;;;;;;18.32;11.05;;;;;;;8.48;84.80;101662.20;1821388;78;21149;-81
2020/12/16 11:18:40;;;;;;;14.50;10.23;;;;;;;8.58;84.92;101660.91;1799321;78;21203;-80
2020/12/16 11:23:48;;;;;;;15.90;10.23;;;;;;;8.95;85.01;101667.48;1888694;75;22933;-81
2020/12/16 11:26:16;;;;;;;16.37;9.60;;;;;;;9.10;85.03;101675.17;1845003;76;21127;-80
2020/12/16 11:28:43;;;;;;;11.83;8.65;;;;;;;9.25;84.71;101673.66;1828487;78;21871;-80
2020/12/16 11:31:10;;;;;;;15.50;9.28;;;;;;;9.34;84.40;101682.84;1828420;77;21570;-80
2020/12/16 11:33:40;;;;;;;13.68;9.28;;;;;;;9.43;84.32;101680.16;1828358;77;21760;-81
2020/12/16 11:36:13;;;;;;;15.75;9.25;;;;;;;9.50;84.18;101675.67;1824133;77;21156;-80
2020/12/16 11:38:45;;;;;;;13.85;8.68;;;;;;;9.57;83.87;101682.08;1850991;77;21191;-81
2020/12/16 11:41:12;;;;;;;14.55;8.63;;;;;;;9.65;83.91;101687.27;1851109;76;21961;-80
2020/12/16 11:43:39;;;;;;;18.17;9.55;;;;;;;9.73;83.80;101688.06;1851686;77;21181;-80
2020/12/16 11:46:06;;;;;;;17.32;10.18;;;;;;;9.80;83.62;101692.27;1862173;77;21123;-80
2020/12/16 11:48:35;;;;;;;11.08;7.97;;;;;;;9.84;83.52;101689.86;1861971;77;21856;-83
2020/12/16 11:51:02;;;;;;;14.38;8.50;;;;;;;9.89;83.29;101697.53;1862155;77;21179;-80
2020/12/16 11:53:29;;;;;;;12.00;7.33;;;;;;;9.92;83.16;101696.75;1862122;77;21683;-79
2020/12/16 11:55:56;;;;;;;16.57;9.83;;;;;;;9.94;82.88;101706.92;1836822;77;22337;-80
2020/12/16 11:58:29;;;;;;;13.98;7.78;;;;;;;9.90;82.70;101698.00;1828257;77;21693;-80
2020/12/16 12:00:55;;;;;;;13.25;8.60;;;;;;;9.92;82.78;101700.27;1828219;77;21154;-80